• Join FlightAware (Why Join?)
  • Login
  • US Flag 
09:39AM EDT


 

Airport Tracker/Info


-or-


 

Live Flight TrackerFlight Track Log ✈ N4467D ✈ 08-Jul-2009 ✈ KTKI - KTPA

Flight Track Log - Related Links

Times and Time Zones

All times are in EDT time to prevent confusion due to time zone crossing. See the N4467D flight status page for this flight to view local times or setup timezone preferences in your user account.

Time Position Orientation Groundspeed Altitude Reporting Facility
EDT Latitude Longitude Course Direction KTS MPH feet Rate Location/Type
11:02AM 33.1500 -96.5833 222° Southwest 128 147 1,300  Level Dallas / Fort Worth TRACON
11:02AM 33.1417 -96.5922 176° South 128 147 1,600 780 Climbing Fort Worth Center
11:03AM 33.1125 -96.5900 168° South 123 142 2,400 660 Climbing Fort Worth Center
11:04AM 33.0833 -96.5828 103° East 123 142 3,000 600 Climbing Fort Worth Center
11:05AM 33.0744 -96.5358 97° East 113 130 3,700 720 Climbing Fort Worth Center
11:06AM 33.0700 -96.4911 100° East 135 155 4,500 840 Climbing Fort Worth Center
11:07AM 33.0633 -96.4467 102° East 135 155 5,400 780 Climbing Fort Worth Center
11:08AM 33.0547 -96.3997 104° East 140 161 6,100 720 Climbing Fort Worth Center
11:09AM 33.0461 -96.3578 101° East 140 161 6,900 720 Climbing Fort Worth Center
11:10AM 33.0394 -96.3156 103° East 135 155 7,600 720 Climbing Fort Worth Center
11:11AM 33.0306 -96.2686 103° East 141 162 8,400 780 Climbing Fort Worth Center
11:12AM 33.0219 -96.2242 106° East 141 162 9,200 780 Climbing Fort Worth Center
11:13AM 33.0111 -96.1797 103° East 141 162 10,000 780 Climbing Fort Worth Center
11:14AM 33.0022 -96.1328 103° East 141 162 10,800 720 Climbing Fort Worth Center
11:15AM 32.9933 -96.0883 105° East 141 162 11,500 660 Climbing Fort Worth Center
11:16AM 32.9825 -96.0389 106° East 141 162 12,200 720 Climbing Fort Worth Center
11:17AM 32.9714 -95.9919 103° East 141 162 13,000 660 Climbing Fort Worth Center
11:18AM 32.9625 -95.9453 105° East 141 162 13,600 600 Climbing Fort Worth Center
11:19AM 32.9517 -95.8958 102° East 147 169 14,300 600 Climbing Fort Worth Center
11:20AM 32.9425 -95.8439 104° East 153 176 14,900 660 Climbing Fort Worth Center
11:21AM 32.9314 -95.7922 104° East 153 176 15,700 660 Climbing Fort Worth Center
11:22AM 32.9203 -95.7406 103° East 153 176 16,300 600 Climbing Fort Worth Center
11:23AM 32.9114 -95.6936 102° East 153 176 17,000 600 Climbing Fort Worth Center
11:24AM 32.9022 -95.6419 96° East 153 176 17,600 540 Climbing Fort Worth Center
11:25AM 32.8975 -95.5850 106° East 164 189 18,100 600 Climbing Fort Worth Center
11:26AM 32.8839 -95.5283 101° East 169 194 18,800 600 Climbing Fort Worth Center
11:27AM 32.8747 -95.4717 101° East 169 194 19,400 600 Climbing Fort Worth Center
11:28AM 32.8656 -95.4175 106° East 169 194 20,000 540 Climbing Fort Worth Center
11:29AM 32.8522 -95.3608 101° East 169 194 20,500 420 Climbing Fort Worth Center
11:30AM 32.8428 -95.3017 113° Southeast 170 196 20,900 240 Climbing Fort Worth Center
11:31AM 32.8208 -95.2406 109° East 181 208 21,000  Climbing Fort Worth Center
11:32AM 32.7989 -95.1669 103° East 205 236 21,000  Level Fort Worth Center
11:33AM 32.7850 -95.0981 105° East 215 247 21,000  Level Fort Worth Center
11:34AM 32.7692 -95.0269 102° East 215 247 21,000  Level Fort Worth Center
11:35AM 32.7572 -94.9581 105° East 220 253 21,000  Level Fort Worth Center
11:36AM 32.7414 -94.8892 105° East 220 253 21,000  Level Fort Worth Center
11:37AM 32.7253 -94.8181 103° East 220 253 21,000  Level Fort Worth Center
11:38AM 32.7111 -94.7469 103° East 220 253 21,000  Level Fort Worth Center
11:39AM 32.6972 -94.6758 104° East 220 253 21,000  Level Fort Worth Center
11:40AM 32.6831 -94.6069 103° East 220 253 21,000  Level Fort Worth Center
11:41AM 32.6689 -94.5358 107° East 220 253 21,000  Level Fort Worth Center
11:42AM 32.6506 -94.4650 105° East 220 253 21,000  Level Fort Worth Center
11:43AM 32.6344 -94.3939 107° East 220 253 21,000  Level Fort Worth Center
11:44AM 32.6158 -94.3231 104° East 220 253 21,000  Level Fort Worth Center
11:45AM 32.6017 -94.2544 103° East 220 253 21,000  Level Fort Worth Center
11:46AM 32.5875 -94.1836 103° East 220 253 21,000  Level Fort Worth Center
11:47AM 32.5731 -94.1125 105° East 220 253 21,000  Level Fort Worth Center
11:48AM 32.5567 -94.0417 105° East 220 253 21,000  Level Fort Worth Center
11:49AM 32.5400 -93.9683 102° East 220 253 21,000  Level Fort Worth Center
11:50AM 32.5275 -93.8997 105° East 220 253 21,000  Level Fort Worth Center
11:51AM 32.5108 -93.8267 104° East 220 253 21,000  Level Fort Worth Center
11:52AM 32.4964 -93.7558 105° East 220 253 21,000  Level Fort Worth Center
11:53AM 32.4797 -93.6825 103° East 225 259 21,000  Level Fort Worth Center
11:54AM 32.4650 -93.6094 104° East 220 253 21,000  Level Fort Worth Center
11:55AM 32.4503 -93.5386 105° East 220 253 21,000  Level Fort Worth Center
11:56AM 32.4333 -93.4656 109° East 220 253 21,000  Level Fort Worth Center
11:57AM 32.4144 -93.3997 103° East 220 253 21,000  Level Fort Worth Center
11:58AM 32.3997 -93.3242 104° East 220 253 21,000  Level Fort Worth Center
11:59AM 32.3847 -93.2536 106° East 220 253 21,000  Level Fort Worth Center
12:00PM 32.3678 -93.1831 107° East 220 253 21,000  Level Fort Worth Center
12:01PM 32.3486 -93.1100 106° East 220 253 21,000  Level Fort Worth Center
12:01PM 32.3456 -93.0975 106° East 220 253 21,000  Level Houston Center
12:03PM 32.3275 -93.0236 106° East 220 253 21,000  Level Houston Center
12:04PM 32.3075 -92.9400 104° East 226 260 21,000  Level Houston Center
12:05PM 32.2917 -92.8636 108° East 226 260 21,000  Level Houston Center
12:06PM 32.2733 -92.7947 106° East 226 260 21,000  Level Houston Center
12:07PM 32.2553 -92.7208 104° East 226 260 21,000  Level Houston Center
12:08PM 32.2392 -92.6472 104° East 231 266 21,000  Level Houston Center
12:09PM 32.2231 -92.5733 107° East 224 258 21,000  Level Houston Center
12:10PM 32.2047 -92.5019 105° East 224 258 21,000  Level Houston Center
12:11PM 32.1883 -92.4308 106° East 224 258 21,000  Level Houston Center
12:12PM 32.1742 -92.3744 104° East 224 258 21,000  Level Houston Center
12:13PM 32.1558 -92.2861 107° East 224 258 21,100  Climbing Houston Center
12:14PM 32.1375 -92.2147 105° East 224 258 21,100  Level Houston Center
12:15PM 32.1211 -92.1411 105° East 224 258 21,100  Level Houston Center
12:16PM 32.1044 -92.0700 107° East 224 258 21,100  Level Houston Center
12:17PM 32.0858 -91.9992 105° East 224 258 21,100  Level Houston Center
12:18PM 32.0714 -91.9336 107° East 236 272 21,100  Level Memphis Center
12:19PM 32.0514 -91.8572 107° East 244 281 21,100  Level Memphis Center
12:20PM 32.0333 -91.7861 103° East 238 274 21,100  Level Memphis Center
12:21PM 32.0194 -91.7172 107° East 231 266 21,100  Level Memphis Center
12:22PM 31.9994 -91.6408 105° East 225 259 21,100  Level Memphis Center
12:23PM 31.9833 -91.5697 108° East 225 259 21,100  Level Memphis Center
12:24PM 31.9633 -91.4983 105° East 225 259 21,100  Level Memphis Center
12:25PM 31.9453 -91.4175 106° East 232 267 21,100  Level Memphis Center
12:26PM 31.9289 -91.3486 107° East 226 260 21,100  Level Memphis Center
12:27PM 31.9128 -91.2869 105° East 223 257 21,100  Level Houston Center
12:28PM 31.8958 -91.2114 105° East 228 262 21,100 -60 Level Houston Center
12:29PM 31.8789 -91.1381 107° East 228 262 21,000 -60 Descending Houston Center
12:30PM 31.8597 -91.0650 105° East 228 262 21,000  Level Houston Center
12:31PM 31.8428 -90.9917 110° East 228 262 21,100  Climbing Houston Center
12:32PM 31.8194 -90.9161 103° East 228 262 21,100 -60 Level Houston Center
12:33PM 31.8067 -90.8503 107° East 222 255 21,000  Descending Houston Center
12:34PM 31.7872 -90.7747 105° East 227 261 21,100  Climbing Houston Center
12:35PM 31.7703 -90.7017 107° East 227 261 21,100 -60 Level Houston Center
12:36PM 31.7508 -90.6286 108° East 227 261 21,000 -60 Descending Houston Center
12:37PM 31.7314 -90.5581 106° East 227 261 21,000  Level Houston Center
12:38PM 31.7142 -90.4875 105° East 227 261 21,100  Climbing Houston Center
12:39PM 31.6969 -90.4122 108° East 227 261 21,100  Level Houston Center
12:40PM 31.6775 -90.3417 107° East 227 261 21,100  Level Houston Center
12:41PM 31.6581 -90.2689 106° East 227 261 21,100  Level Houston Center
12:42PM 31.6406 -90.1958 108° East 227 261 21,100  Level Houston Center
12:43PM 31.6208 -90.1231 107° East 227 261 21,100  Level Houston Center
12:44PM 31.6011 -90.0478 105° East 227 261 21,100  Level Houston Center
12:45PM 31.5836 -89.9703 110° East 227 261 21,100  Level Houston Center
12:46PM 31.5619 -89.9000 105° East 227 261 21,100  Level Houston Center
12:47PM 31.5442 -89.8247 108° East 227 261 21,100  Level Houston Center
12:48PM 31.5244 -89.7519 107° East 227 261 21,100  Level Houston Center
12:49PM 31.5044 -89.6769 105° East 227 261 21,100  Level Houston Center
12:50PM 31.4867 -89.6019 108° East 227 261 21,100  Level Houston Center
12:51PM 31.4667 -89.5292 104° East 233 268 21,100  Level Houston Center
12:52PM 31.4511 -89.4567 108° East 233 268 21,100  Level Houston Center
12:53PM 31.4311 -89.3842 106° East 233 268 21,100  Level Houston Center
12:54PM 31.4131 -89.3117 111° Southeast 233 268 21,100  Level Houston Center
12:55PM 31.3889 -89.2392 110° East 228 262 21,100  Level Houston Center
12:56PM 31.3667 -89.1669 108° East 228 262 21,100  Level Houston Center
12:57PM 31.3464 -89.0919 107° East 233 268 21,100 -60 Level Houston Center
12:58PM 31.3261 -89.0147 106° East 233 268 21,000  Descending Houston Center
12:59PM 31.3081 -88.9400 106° East 233 268 21,100  Climbing Houston Center
01:00PM 31.2900 -88.8675 107° East 233 268 21,100  Level Houston Center
01:01PM 31.2717 -88.7953 107° East 233 268 21,100  Level Houston Center
01:02PM 31.2514 -88.7181 106° East 233 268 21,100  Level Houston Center
01:03PM 31.2331 -88.6458 108° East 238 274 21,100  Level Houston Center
01:04PM 31.2125 -88.5736 108° East 238 274 21,100 -60 Level Houston Center
01:05PM 31.1922 -88.5014 108° East 238 274 21,000 -60 Descending Houston Center
01:06PM 31.1717 -88.4294 108° East 233 268 21,000  Level Houston Center
01:07PM 31.1511 -88.3572 107° East 233 268 21,100  Climbing Houston Center
01:08PM 31.1325 -88.2850 109° East 228 262 21,100  Level Houston Center
01:09PM 31.1100 -88.2108 106° East 234 269 21,100  Level Houston Center
01:10PM 31.0914 -88.1364 110° East 241 277 21,100  Level Houston Center
01:10PM 31.0822 -88.1075 110° East 240 276 21,100  Level Jacksonville Center
01:11PM 31.0603 -88.0358 108° East 233 268 21,100  Level Jacksonville Center
01:12PM 31.0400 -87.9644 108° East 233 268 21,100  Level Jacksonville Center
01:13PM 31.0200 -87.8931 108° East 228 262 21,100  Level Jacksonville Center
01:14PM 30.9997 -87.8217 106° East 233 268 21,100  Level Jacksonville Center
01:15PM 30.9817 -87.7506 108° East 233 268 21,100  Level Jacksonville Center
01:16PM 30.9614 -87.6792 108° East 233 268 21,100  Level Jacksonville Center
01:17PM 30.9411 -87.6081 104° East 233 268 21,100  Level Jacksonville Center
01:18PM 30.9250 -87.5347 98° East 233 268 21,100  Level Jacksonville Center
01:19PM 30.9153 -87.4567 95° East 233 268 21,100  Level Jacksonville Center
01:20PM 30.9097 -87.3789 95° East 233 268 21,100  Level Jacksonville Center
01:21PM 30.9042 -87.3036 93° East 238 274 21,100  Level Jacksonville Center
01:22PM 30.9006 -87.2261 93° East 238 274 21,100  Level Jacksonville Center
01:23PM 30.8967 -87.1508 93° East 238 274 21,100 -60 Level Jacksonville Center
01:24PM 30.8931 -87.0731 93° East 238 274 21,000  Descending Jacksonville Center
01:25PM 30.8894 -86.9956 101° East 238 274 21,200  Climbing Jacksonville Center
01:26PM 30.8772 -86.9200 92° East 233 268 21,100 -60 Descending Jacksonville Center
01:27PM 30.8753 -86.8450 93° East 233 268 21,100 -60 Level Jacksonville Center
01:28PM 30.8714 -86.7650 95° East 239 275 21,000 -60 Descending Jacksonville Center
01:29PM 30.8656 -86.6825 97° East 234 269 21,000  Level Jacksonville Center
01:30PM 30.8575 -86.6069 94° East 234 269 21,100  Climbing Jacksonville Center
01:31PM 30.8533 -86.5319 92° East 234 269 21,100 -60 Level Jacksonville Center
01:32PM 30.8514 -86.4544 96° East 234 269 21,000 -60 Descending Jacksonville Center
01:33PM 30.8450 -86.3792 92° East 234 269 21,000  Level Jacksonville Center
01:34PM 30.8431 -86.3017 94° East 234 269 21,100  Climbing Jacksonville Center
01:35PM 30.8389 -86.2267 92° East 234 269 21,100  Level Jacksonville Center
01:36PM 30.8367 -86.1514 92° East 234 269 21,100  Level Jacksonville Center
01:37PM 30.8344 -86.0739 94° East 234 269 21,100  Level Jacksonville Center
01:38PM 30.8300 -85.9989 92° East 234 269 21,100  Level Jacksonville Center
01:39PM 30.8275 -85.9214 92° East 234 269 21,100  Level Jacksonville Center
01:40PM 30.8253 -85.8486 92° East 234 269 21,100  Level Jacksonville Center
01:41PM 30.8228 -85.7711 94° East 234 269 21,100 -60 Level Jacksonville Center
01:42PM 30.8181 -85.6961 94° East 234 269 21,000 -60 Descending Jacksonville Center
01:43PM 30.8136 -85.6211 94° East 234 269 21,000  Level Jacksonville Center
01:44PM 30.8089 -85.5436 96° East 239 275 21,100  Climbing Jacksonville Center
01:45PM 30.8022 -85.4658 92° East 239 275 21,100  Level Jacksonville Center
01:46PM 30.7994 -85.3883 94° East 239 275 21,100  Level Jacksonville Center
01:47PM 30.7947 -85.3108 94° East 239 275 21,100 -60 Level Jacksonville Center
01:48PM 30.7900 -85.2311 95° East 239 275 21,000  Descending Jacksonville Center
01:49PM 30.7850 -85.1583 116° Southeast 239 275 21,100  Climbing Jacksonville Center
01:50PM 30.7569 -85.0900 127° Southeast 229 264 21,000 -60 Descending Jacksonville Center
01:51PM 30.7203 -85.0336 129° Southeast 221 254 21,000  Level Jacksonville Center
01:52PM 30.6797 -84.9747 129° Southeast 226 260 21,100  Climbing Jacksonville Center
01:53PM 30.6389 -84.9158 130° Southeast 231 266 21,100 -60 Level Jacksonville Center
01:54PM 30.6000 -84.8619 133° Southeast 231 266 21,000 -60 Descending Jacksonville Center
01:55PM 30.5569 -84.8081 135° Southeast 231 266 21,000  Level Jacksonville Center
01:56PM 30.5139 -84.7589 135° Southeast 225 259 21,000  Level Jacksonville Center
01:57PM 30.4708 -84.7097 137° Southeast 219 252 21,000  Level Jacksonville Center
01:58PM 30.4275 -84.6633 135° Southeast 213 245 21,000  Level Jacksonville Center
01:59PM 30.3844 -84.6142 133° Southeast 213 245 21,000  Level Jacksonville Center
02:00PM 30.3433 -84.5631 133° Southeast 213 245 21,000  Level Jacksonville Center
02:01PM 30.3022 -84.5117 125° Southeast 213 245 21,100  Climbing Jacksonville Center
02:02PM 30.2653 -84.4511 102° East 224 258 21,000 -60 Descending Jacksonville Center
02:03PM 30.2517 -84.3764 97° East 224 258 21,000  Level Jacksonville Center
02:04PM 30.2442 -84.3017 100° East 230 265 21,000  Level Jacksonville Center
02:05PM 30.2325 -84.2269 100° East 230 265 21,000  Level Jacksonville Center
02:06PM 30.2206 -84.1497 95° East 236 272 21,000  Level Jacksonville Center
02:07PM 30.2150 -84.0728 95° East 236 272 21,000  Level Jacksonville Center
02:08PM 30.2094 -83.9958 93° East 236 272 21,100  Climbing Jacksonville Center
02:09PM 30.2061 -83.9164 95° East 236 272 21,100  Level Jacksonville Center
02:10PM 30.2003 -83.8419 108° East 236 272 21,100 -60 Level Jacksonville Center
02:11PM 30.1800 -83.7697 115° Southeast 231 266 21,000 -300 Descending Jacksonville Center
02:12PM 30.1533 -83.7044 119° Southeast 231 266 20,600 -480 Descending Jacksonville Center
02:13PM 30.1203 -83.6347 119° Southeast 230 265 20,100 -540 Descending Jacksonville Center
02:14PM 30.0872 -83.5647 116° Southeast 240 276 19,600 -600 Descending Jacksonville Center
02:15PM 30.0583 -83.4950 122° Southeast 240 276 19,000 -600 Descending Jacksonville Center
02:16PM 30.0211 -83.4275 130° Southeast 247 284 18,500 -540 Descending Jacksonville Center
02:17PM 29.9797 -83.3697 153° Southeast 247 284 18,000 -540 Descending Jacksonville Center
02:18PM 29.9256 -83.3383 160° South 230 265 17,500 -480 Descending Jacksonville Center
02:19PM 29.8692 -83.3142 159° South 224 258 17,100 -300 Descending Jacksonville Center
02:20PM 29.8150 -83.2900 154° Southeast 219 252 17,000 -60 Descending Jacksonville Center
02:21PM 29.7628 -83.2611 158° South 214 246 17,000  Level Jacksonville Center
02:22PM 29.7169 -83.2394 157° South 208 239 17,000 -60 Level Jacksonville Center
02:23PM 29.6669 -83.2153 161° South 208 239 16,900 -300 Descending Jacksonville Center
02:24PM 29.6106 -83.1936 174° South 208 239 16,400 -540 Descending Jacksonville Center
02:25PM 29.5481 -83.1861 172° South 214 246 15,900 -540 Descending Jacksonville Center
02:26PM 29.4875 -83.1764 174° South 214 246 15,400 -480 Descending Jacksonville Center
02:27PM 29.4292 -83.1692 191° South 214 246 15,000 -180 Descending Jacksonville Center
02:28PM 29.3769 -83.1808 191° South 209 241 15,100  Climbing Jacksonville Center
02:29PM 29.3247 -83.1928 197° South 199 229 15,000 -60 Descending Jacksonville Center
02:30PM 29.2767 -83.2092 194° South 194 223 15,000  Level Jacksonville Center
02:31PM 29.2286 -83.2233 195° South 189 217 15,000  Level Jacksonville Center
02:32PM 29.1825 -83.2375 192° South 179 206 15,000 -60 Level Jacksonville Center
02:33PM 29.1325 -83.2492 184° South 179 206 14,900 -360 Descending Jacksonville Center
02:34PM 29.0761 -83.2536 180° South 191 220 14,300 -600 Descending Jacksonville Center
02:35PM 29.0217 -83.2536 165° South 197 227 13,800 -600 Descending Jacksonville Center
02:36PM 28.9675 -83.2367 175° South 197 227 13,200 -600 Descending Jacksonville Center
02:37PM 28.9175 -83.2317 180° South 197 227 12,700 -540 Descending Jacksonville Center
02:38PM 28.8653 -83.2317 187° South 192 221 12,200 -540 Descending Jacksonville Center
02:39PM 28.8172 -83.2386 178° South 187 215 11,700 -600 Descending Jacksonville Center
02:40PM 28.7650 -83.2361 153° Southeast 182 209 11,000 -660 Descending Jacksonville Center
02:41PM 28.7192 -83.2097 135° Southeast 182 209 10,400 -720 Descending Jacksonville Center
02:42PM 28.6797 -83.1647 138° Southeast 182 209 9,600 -900 Descending Jacksonville Center
02:43PM 28.6358 -83.1197 143° Southeast 196 226 8,700 -720 Descending Jacksonville Center
02:44PM 28.5942 -83.0842 178° South 196 226 8,200 -660 Descending Jacksonville Center
02:44PM 28.5667 -83.0833 180° South 194 223 7,800 -600 Descending Tampa TRACON
02:45PM 28.5500 -83.0833 180° South 200 230 7,700 -360 Descending Tampa TRACON
02:46PM 28.5000 -83.0833 210° Southwest 172 198 7,300 -900 Descending Tampa TRACON
02:47PM 28.4500 -83.1167 221° Southwest 196 226 6,000 -1,320 Descending Tampa TRACON
02:48PM 28.4333 -83.1333 360° North 199 229 -5,940 Descending Tampa TRACON
02:49PM 28.4333 -83.1333 360° North 199 229  Level Tampa TRACON
02:50PM 28.4333 -83.1333 360° North 199 229  Level Tampa TRACON
02:51PM 28.4333 -83.1333 360° North 199 229  Level Tampa TRACON
02:52PM 28.4333 -83.1333 360° North 199 229  Level Tampa TRACON
02:53PM 28.4333 -83.1333 360° North 199 229  Level Tampa TRACON
02:54PM 28.4333 -83.1333 360° North 199 229  Level Tampa TRACON
02:55PM 28.4333 -83.1333 360° North 199 229  Level Tampa TRACON
02:56PM 28.4333 -83.1333 360° North 199 229  Level Tampa TRACON
02:57PM 28.4333 -83.1333 360° North 199 229  Level Tampa TRACON
02:58PM 28.4333 -83.1333 360° North 199 229  Level Tampa TRACON
02:59PM 28.4333 -83.1333 360° North 199 229  Level Tampa TRACON
03:00PM 28.4333 -83.1333 360° North 199 229  Level Tampa TRACON
03:01PM 28.4333 -83.1333 360° North 199 229  Level Tampa TRACON
03:02PM 28.4333 -83.1333 360° North 199 229  Level Tampa TRACON
03:03PM 28.4333 -83.1333 360° North 199 229  Level Tampa TRACON
03:04PM 28.4333 -83.1333 360° North 199 229  Level Tampa TRACON
03:05PM 28.4333 -83.1333 360° North 199 229  Level Tampa TRACON
03:06PM 28.4333 -83.1333 360° North 199 229  Level Tampa TRACON
03:07PM 28.4333 -83.1333 360° North 199 229  Level Tampa TRACON
03:08PM 28.4333 -83.1333 360° North 199 229  Level Tampa TRACON
03:09PM 28.4333 -83.1333 360° North 199 229  Level Tampa TRACON
03:10PM 28.4333 -83.1333 360° North 199 229  Level Tampa TRACON
03:11PM 28.4333 -83.1333 360° North 199 229  Level Tampa TRACON
03:12PM 28.4333 -83.1333 360° North 199 229  Level Tampa TRACON
03:13PM 28.4333 -83.1333 360° North 199 229  Level Tampa TRACON
03:14PM 28.4333 -83.1333 360° North 199 229  Level Tampa TRACON
03:15PM 28.4333 -83.1333 360° North 199 229  Level Tampa TRACON
03:16PM 28.4333 -83.1333 360° North 199 229  Level Tampa TRACON
03:17PM 28.4333 -83.1333 360° North 199 229  Level Tampa TRACON
03:18PM 28.4333 -83.1333 360° North 199 229  Level Tampa TRACON
03:19PM 28.4333 -83.1333 360° North 199 229  Level Tampa TRACON
03:20PM 28.4333 -83.1333 360° North 199 229  Level Tampa TRACON
03:21PM 28.4333 -83.1333 360° North 199 229  Level Tampa TRACON
03:22PM 28.4333 -83.1333 360° North 199 229  Level Tampa TRACON
03:23PM 28.4333 -83.1333 360° North 199 229  Level Tampa TRACON
03:24PM 28.4333 -83.1333 360° North 199 229  Level Tampa TRACON
03:25PM 28.4333 -83.1333 360° North 199 229  Level Tampa TRACON
03:26PM 28.4333 -83.1333 360° North 199 229  Level Tampa TRACON
03:27PM 28.4333 -83.1333 360° North 199 229  Level Tampa TRACON
03:28PM 28.4333 -83.1333 360° North 199 229  Level Tampa TRACON
03:29PM 28.4333 -83.1333 360° North 199 229  Level Tampa TRACON
03:30PM 28.4333 -83.1333 360° North 199 229  Level Tampa TRACON
03:31PM 28.4333 -83.1333 360° North 199 229  Level Tampa TRACON
03:32PM 28.4333 -83.1333 360° North 199 229  Level Tampa TRACON
03:33PM 28.4333 -83.1333 360° North 199 229  Level Tampa TRACON
03:34PM 28.4333 -83.1333 360° North 199 229  Level Tampa TRACON
03:35PM 28.4333 -83.1333 360° North 199 229  Level Tampa TRACON
03:36PM 28.4333 -83.1333 360° North 199 229  Level Tampa TRACON
03:37PM 28.4333 -83.1333 360° North 199 229  Level Tampa TRACON
03:38PM 28.4333 -83.1333 360° North 199 229  Level Tampa TRACON
03:39PM 28.4333 -83.1333 360° North 199 229  Level Tampa TRACON
03:40PM 28.4333 -83.1333 360° North 199 229  Level Tampa TRACON
03:41PM 28.4333 -83.1333 360° North 199 229  Level Tampa TRACON
03:42PM 28.4333 -83.1333 360° North 199 229  Level Tampa TRACON
03:43PM 28.4333 -83.1333 360° North 199 229  Level Tampa TRACON
03:44PM 28.4333 -83.1333 360° North 199 229  Level Tampa TRACON
03:45PM 28.4333 -83.1333 360° North 199 229  Level Tampa TRACON
03:46PM 28.4333 -83.1333 360° North 199 229  Level Tampa TRACON
03:47PM 28.4333 -83.1333 360° North 199 229  Level Tampa TRACON
03:48PM 28.4333 -83.1333 360° North 199 229  Level Tampa TRACON
03:49PM 28.4333 -83.1333 360° North 199 229  Level Tampa TRACON
03:50PM 28.4333 -83.1333 360° North 199 229  Level Tampa TRACON
03:51PM 28.4333 -83.1333 360° North 199 229  Level Tampa TRACON
03:52PM 28.4333 -83.1333 360° North 199 229  Level Tampa TRACON
03:53PM 28.4333 -83.1333 360° North 199 229  Level Tampa TRACON
03:54PM 28.4333 -83.1333 360° North 199 229  Level Tampa TRACON
03:55PM 28.4333 -83.1333 360° North 199 229  Level Tampa TRACON
03:56PM 28.4333 -83.1333 360° North 199 229  Level Tampa TRACON
03:57PM 28.4333 -83.1333 360° North 199 229  Level Tampa TRACON
03:58PM 28.4333 -83.1333 360° North 199 229  Level Tampa TRACON
03:59PM 28.4333 -83.1333 360° North 199 229  Level Tampa TRACON
04:00PM 28.4333 -83.1333 360° North 199 229  Level Tampa TRACON
04:01PM 28.4333 -83.1333 360° North 199 229  Level Tampa TRACON
04:02PM 28.4333 -83.1333 360° North 199 229  Level Tampa TRACON
04:03PM 28.4333 -83.1333 360° North 199 229  Level Tampa TRACON
04:04PM 28.4333 -83.1333 360° North 199 229  Level Tampa TRACON
04:05PM 28.4333 -83.1333 360° North 199 229  Level Tampa TRACON
04:06PM 28.4333 -83.1333 360° North 199 229  Level Tampa TRACON
04:07PM 28.4333 -83.1333 360° North 199 229  Level Tampa TRACON
04:08PM 28.4333 -83.1333 360° North 199 229  Level Tampa TRACON
04:09PM 28.4333 -83.1333 360° North 199 229  Level Tampa TRACON
04:10PM 28.4333 -83.1333 360° North 199 229  Level Tampa TRACON
04:11PM 28.4333 -83.1333 360° North 199 229  Level Tampa TRACON
04:12PM 28.4333 -83.1333 360° North 199 229  Level Tampa TRACON
04:13PM 28.4333 -83.1333 360° North 199 229  Level Tampa TRACON
04:14PM 28.4333 -83.1333 360° North 199 229  Level Tampa TRACON
04:15PM 28.4333 -83.1333 360° North 199 229  Level Tampa TRACON
04:16PM 28.4333 -83.1333 360° North 199 229  Level Tampa TRACON
04:17PM 28.4333 -83.1333 360° North 199 229  Level Tampa TRACON
04:18PM 28.4333 -83.1333 360° North 199 229  Level Tampa TRACON
04:19PM 28.4333 -83.1333 360° North 199 229  Level Tampa TRACON
04:20PM 28.4333 -83.1333 360° North 199 229  Level Tampa TRACON
04:21PM 28.4333 -83.1333 360° North 199 229  Level Tampa TRACON